Tropical Cyclones
[Index]
Main Index Home Page Stock Weather Photos Extreme Storms Discussion Storm News and Storm Chasing Reports Tropical Cyclones / Hurricanes / Typhoons Weather Data and Links Wild Fires / Bushfires Weather Observation Techniques Weather Picture Catalogue Tornado Pictures and Reports Stock Video Footage and DVDs for sale
Season 1997-1998 Tropical Cyclone ALAN Track Map
Season 1997-1998 Summaries: [BoM-AU] [JTWC-AU] [JTWC-SIO] [JTWC-SPAC] [JTWC-SH]
<<- Previous TC | JTWC 1997-1998 Season | Next TC ->>

click for intensity scale information  Lat/long Grid: Show Hide

 Date Labels: Show Hide

Joint Typhoon Warning Centre Cyclone Data

Name: ALAN

20 Apr 1998 00:00 UTC to 26 Apr 1998 18:00 UTC

    date/time    lat    long     hPa   cat  kts
1998-04-20 00   13.8   157.9W                 25          
1998-04-20 06   13.4   158.4W                 25          
1998-04-20 12   12.9   158.9W                 25          
1998-04-20 18   12.3   159.4W                 25          
1998-04-21 00   11.8   159.9W                 25          
1998-04-21 06   11.3   160.1W                 25          
1998-04-21 12   10.8   160.1W                 35          
1998-04-21 18   10.6   159.9W                 35          
1998-04-22 00   10.5   159.7W                 35          
1998-04-22 06   10.6   159.5W           1     40          
1998-04-22 12   10.9   159.4W           1     45          
1998-04-22 18   11.2   159.4W           1     45          
1998-04-23 00   11.4   159.4W           1     45          
1998-04-23 06   11.6   159.3W           1     45          
1998-04-23 12   11.9   158.9W           1     45          
1998-04-23 18   12.3   158.4W           1     45          
1998-04-24 00   13.0   157.3W           1     45          
1998-04-24 06   13.8   156.2W           1     45          
1998-04-24 12   14.5   155.3W           1     45          
1998-04-24 18   15.2   154.7W           1     45          
1998-04-25 00   15.8   154.0W           1     45          
1998-04-25 06   16.1   153.3W           1     45          
1998-04-25 12   16.2   152.8W           1     45          
1998-04-25 18   16.2   152.5W           1     45          
1998-04-26 00   16.3   152.3W                 35          
1998-04-26 06   16.5   152.1W                 30          
1998-04-26 12   16.7   151.8W                 30          
1998-04-26 18   16.9   151.3W                 25          
Winds are 1-min average.

Tropical cyclone tracks developed by Michael Bath using data from the Joint Typhoon Warning Centre Best Tracks and Google Maps.


[Australian Severe Weather index] [Copyright Notice] [Email Contacts] [Search This Site] [Privacy Policy]
Document: tropical_cyclone_alan.htm Updated: 18 September 2016